sensor_id;sensor_type;location;lat;lon;timestamp;temperature;humidity
5394;DHT22;2720;52.396;10.064;2022-09-25T00:01:31;12.50;99.90
5394;DHT22;2720;52.396;10.064;2022-09-25T00:03:59;12.50;99.90
5394;DHT22;2720;52.396;10.064;2022-09-25T00:06:27;12.50;99.90
5394;DHT22;2720;52.396;10.064;2022-09-25T00:08:55;12.50;99.90
5394;DHT22;2720;52.396;10.064;2022-09-25T00:11:24;12.40;99.90
5394;DHT22;2720;52.396;10.064;2022-09-25T00:13:52;12.40;99.90
5394;DHT22;2720;52.396;10.064;2022-09-25T00:16:22;12.40;99.90
5394;DHT22;2720;52.396;10.064;2022-09-25T00:18:49;12.40;99.90
5394;DHT22;2720;52.396;10.064;2022-09-25T00:21:36;12.40;99.90
5394;DHT22;2720;52.396;10.064;2022-09-25T00:24:05;12.40;99.90
5394;DHT22;2720;52.396;10.064;2022-09-25T00:26:34;12.40;99.90
5394;DHT22;2720;52.396;10.064;2022-09-25T00:29:03;12.40;99.90
5394;DHT22;2720;52.396;10.064;2022-09-25T00:31:31;12.40;99.90
5394;DHT22;2720;52.396;10.064;2022-09-25T00:34:00;12.40;99.90
5394;DHT22;2720;52.396;10.064;2022-09-25T00:36:28;12.50;99.90
5394;DHT22;2720;52.396;10.064;2022-09-25T00:38:56;12.50;99.90
5394;DHT22;2720;52.396;10.064;2022-09-25T00:41:24;12.40;99.90
5394;DHT22;2720;52.396;10.064;2022-09-25T00:43:53;12.40;99.90
5394;DHT22;2720;52.396;10.064;2022-09-25T00:46:23;12.40;99.90
5394;DHT22;2720;52.396;10.064;2022-09-25T00:48:54;12.40;99.90
5394;DHT22;2720;52.396;10.064;2022-09-25T00:51:29;12.40;99.90
5394;DHT22;2720;52.396;10.064;2022-09-25T00:54:03;12.50;99.90
5394;DHT22;2720;52.396;10.064;2022-09-25T00:56:34;12.50;99.90
5394;DHT22;2720;52.396;10.064;2022-09-25T00:59:03;12.50;99.90
5394;DHT22;2720;52.396;10.064;2022-09-25T01:01:31;12.50;99.90
5394;DHT22;2720;52.396;10.064;2022-09-25T01:03:58;12.40;99.90
5394;DHT22;2720;52.396;10.064;2022-09-25T01:06:26;12.40;99.90
5394;DHT22;2720;52.396;10.064;2022-09-25T01:08:54;12.40;99.90
5394;DHT22;2720;52.396;10.064;2022-09-25T01:11:22;12.30;99.90
5394;DHT22;2720;52.396;10.064;2022-09-25T01:13:53;12.30;99.90
5394;DHT22;2720;52.396;10.064;2022-09-25T01:16:28;12.30;99.90
5394;DHT22;2720;52.396;10.064;2022-09-25T01:19:05;12.30;99.90
5394;DHT22;2720;52.396;10.064;2022-09-25T01:21:40;12.30;99.90
5394;DHT22;2720;52.396;10.064;2022-09-25T01:24:32;12.30;99.90
5394;DHT22;2720;52.396;10.064;2022-09-25T01:27:24;12.30;99.90
5394;DHT22;2720;52.396;10.064;2022-09-25T01:30:02;12.30;99.90
5394;DHT22;2720;52.396;10.064;2022-09-25T01:32:35;12.30;99.90
5394;DHT22;2720;52.396;10.064;2022-09-25T01:35:08;12.30;99.90
5394;DHT22;2720;52.396;10.064;2022-09-25T01:37:43;12.30;99.90
5394;DHT22;2720;52.396;10.064;2022-09-25T01:40:15;12.20;99.90
5394;DHT22;2720;52.396;10.064;2022-09-25T01:42:47;12.20;99.90
5394;DHT22;2720;52.396;10.064;2022-09-25T01:45:21;12.20;99.90
5394;DHT22;2720;52.396;10.064;2022-09-25T01:47:50;12.20;99.90
5394;DHT22;2720;52.396;10.064;2022-09-25T01:50:26;12.20;99.90
5394;DHT22;2720;52.396;10.064;2022-09-25T01:52:56;12.20;99.90
5394;DHT22;2720;52.396;10.064;2022-09-25T01:55:28;12.10;99.90
5394;DHT22;2720;52.396;10.064;2022-09-25T01:58:01;12.10;99.90
5394;DHT22;2720;52.396;10.064;2022-09-25T02:00:31;12.10;99.90
5394;DHT22;2720;52.396;10.064;2022-09-25T02:03:07;12.10;99.90
5394;DHT22;2720;52.396;10.064;2022-09-25T02:05:39;12.10;99.90
5394;DHT22;2720;52.396;10.064;2022-09-25T02:08:10;12.10;99.90
5394;DHT22;2720;52.396;10.064;2022-09-25T02:10:42;12.10;99.90
5394;DHT22;2720;52.396;10.064;2022-09-25T02:13:14;12.10;99.90
5394;DHT22;2720;52.396;10.064;2022-09-25T02:15:46;12.10;99.90
5394;DHT22;2720;52.396;10.064;2022-09-25T02:18:15;12.10;99.90
5394;DHT22;2720;52.396;10.064;2022-09-25T02:21:10;12.00;99.90
5394;DHT22;2720;52.396;10.064;2022-09-25T02:23:46;12.10;99.90
5394;DHT22;2720;52.396;10.064;2022-09-25T02:28:45;12.00;99.90
5394;DHT22;2720;52.396;10.064;2022-09-25T02:31:13;12.10;99.90
5394;DHT22;2720;52.396;10.064;2022-09-25T02:33:41;12.10;99.90
5394;DHT22;2720;52.396;10.064;2022-09-25T02:36:16;12.10;99.90
5394;DHT22;2720;52.396;10.064;2022-09-25T02:38:44;12.10;99.90
5394;DHT22;2720;52.396;10.064;2022-09-25T02:41:17;12.10;99.90
5394;DHT22;2720;52.396;10.064;2022-09-25T02:43:53;12.00;99.90
5394;DHT22;2720;52.396;10.064;2022-09-25T02:46:32;12.10;99.90
5394;DHT22;2720;52.396;10.064;2022-09-25T02:49:08;12.00;99.90
5394;DHT22;2720;52.396;10.064;2022-09-25T02:51:45;12.10;99.90
5394;DHT22;2720;52.396;10.064;2022-09-25T02:54:17;12.10;99.90
5394;DHT22;2720;52.396;10.064;2022-09-25T02:56:50;12.10;99.90
5394;DHT22;2720;52.396;10.064;2022-09-25T02:59:21;12.10;99.90
5394;DHT22;2720;52.396;10.064;2022-09-25T03:01:50;12.10;99.90
5394;DHT22;2720;52.396;10.064;2022-09-25T03:04:18;12.10;99.90
5394;DHT22;2720;52.396;10.064;2022-09-25T03:06:46;12.10;99.90
5394;DHT22;2720;52.396;10.064;2022-09-25T03:09:14;12.10;99.90
5394;DHT22;2720;52.396;10.064;2022-09-25T03:11:43;12.10;99.90
5394;DHT22;2720;52.396;10.064;2022-09-25T03:14:10;12.10;99.90
5394;DHT22;2720;52.396;10.064;2022-09-25T03:16:42;12.10;99.90
5394;DHT22;2720;52.396;10.064;2022-09-25T03:19:12;12.00;99.90
5394;DHT22;2720;52.396;10.064;2022-09-25T03:21:39;12.00;99.90
5394;DHT22;2720;52.396;10.064;2022-09-25T03:24:06;12.00;99.90
5394;DHT22;2720;52.396;10.064;2022-09-25T03:26:34;12.00;99.90
5394;DHT22;2720;52.396;10.064;2022-09-25T03:29:01;12.10;99.90
5394;DHT22;2720;52.396;10.064;2022-09-25T03:31:29;12.10;99.90
5394;DHT22;2720;52.396;10.064;2022-09-25T03:33:56;12.10;99.90
5394;DHT22;2720;52.396;10.064;2022-09-25T03:36:26;12.10;99.90
5394;DHT22;2720;52.396;10.064;2022-09-25T03:38:55;12.10;99.90
5394;DHT22;2720;52.396;10.064;2022-09-25T03:41:24;12.10;99.90
5394;DHT22;2720;52.396;10.064;2022-09-25T03:43:52;12.10;99.90
5394;DHT22;2720;52.396;10.064;2022-09-25T03:46:23;12.10;99.90
5394;DHT22;2720;52.396;10.064;2022-09-25T03:48:51;12.10;99.90
5394;DHT22;2720;52.396;10.064;2022-09-25T03:51:18;12.10;99.90
5394;DHT22;2720;52.396;10.064;2022-09-25T03:53:47;12.10;99.90
5394;DHT22;2720;52.396;10.064;2022-09-25T03:56:16;12.10;99.90
5394;DHT22;2720;52.396;10.064;2022-09-25T03:58:44;12.20;99.90
5394;DHT22;2720;52.396;10.064;2022-09-25T04:01:12;12.10;99.90
5394;DHT22;2720;52.396;10.064;2022-09-25T04:03:39;12.10;99.90
5394;DHT22;2720;52.396;10.064;2022-09-25T04:06:12;12.00;99.90
5394;DHT22;2720;52.396;10.064;2022-09-25T04:08:41;12.00;99.90
5394;DHT22;2720;52.396;10.064;2022-09-25T04:11:10;12.00;99.90
5394;DHT22;2720;52.396;10.064;2022-09-25T04:13:37;11.90;99.90
5394;DHT22;2720;52.396;10.064;2022-09-25T04:16:05;11.90;99.90
5394;DHT22;2720;52.396;10.064;2022-09-25T04:18:33;12.00;99.90
5394;DHT22;2720;52.396;10.064;2022-09-25T04:21:00;11.90;99.90
5394;DHT22;2720;52.396;10.064;2022-09-25T04:23:29;11.90;99.90
5394;DHT22;2720;52.396;10.064;2022-09-25T04:25:56;11.90;99.90
5394;DHT22;2720;52.396;10.064;2022-09-25T04:28:24;11.90;99.90
5394;DHT22;2720;52.396;10.064;2022-09-25T04:30:51;11.90;99.90
5394;DHT22;2720;52.396;10.064;2022-09-25T04:33:19;11.90;99.90
5394;DHT22;2720;52.396;10.064;2022-09-25T04:36:04;11.80;99.90
5394;DHT22;2720;52.396;10.064;2022-09-25T04:38:31;11.90;99.90
5394;DHT22;2720;52.396;10.064;2022-09-25T04:40:58;11.90;99.90
5394;DHT22;2720;52.396;10.064;2022-09-25T04:43:28;11.90;99.90
5394;DHT22;2720;52.396;10.064;2022-09-25T04:46:00;11.90;99.90
5394;DHT22;2720;52.396;10.064;2022-09-25T04:48:27;11.90;99.90
5394;DHT22;2720;52.396;10.064;2022-09-25T04:50:54;11.90;99.90
5394;DHT22;2720;52.396;10.064;2022-09-25T04:53:23;11.90;99.90
5394;DHT22;2720;52.396;10.064;2022-09-25T04:55:51;11.90;99.90
5394;DHT22;2720;52.396;10.064;2022-09-25T04:58:19;12.00;99.90
5394;DHT22;2720;52.396;10.064;2022-09-25T05:00:47;11.90;99.90
5394;DHT22;2720;52.396;10.064;2022-09-25T05:03:15;12.00;99.90
5394;DHT22;2720;52.396;10.064;2022-09-25T05:05:42;12.00;99.90
5394;DHT22;2720;52.396;10.064;2022-09-25T05:08:09;11.90;99.90
5394;DHT22;2720;52.396;10.064;2022-09-25T05:10:37;11.90;99.90
5394;DHT22;2720;52.396;10.064;2022-09-25T05:13:06;11.90;99.90
5394;DHT22;2720;52.396;10.064;2022-09-25T05:15:33;11.90;99.90
5394;DHT22;2720;52.396;10.064;2022-09-25T05:18:03;11.90;99.90
5394;DHT22;2720;52.396;10.064;2022-09-25T05:20:31;11.90;99.90
5394;DHT22;2720;52.396;10.064;2022-09-25T05:22:58;11.90;99.90
5394;DHT22;2720;52.396;10.064;2022-09-25T05:25:29;11.90;99.90
5394;DHT22;2720;52.396;10.064;2022-09-25T05:27:58;11.90;99.90
5394;DHT22;2720;52.396;10.064;2022-09-25T05:30:27;11.90;99.90
5394;DHT22;2720;52.396;10.064;2022-09-25T05:32:54;11.90;99.90
5394;DHT22;2720;52.396;10.064;2022-09-25T05:35:26;11.80;99.90
5394;DHT22;2720;52.396;10.064;2022-09-25T05:37:54;11.80;99.90
5394;DHT22;2720;52.396;10.064;2022-09-25T05:40:21;11.80;99.90
5394;DHT22;2720;52.396;10.064;2022-09-25T05:42:49;11.80;99.90
5394;DHT22;2720;52.396;10.064;2022-09-25T05:45:18;11.80;99.90
5394;DHT22;2720;52.396;10.064;2022-09-25T05:47:45;11.80;99.90
5394;DHT22;2720;52.396;10.064;2022-09-25T05:50:15;11.90;99.90
5394;DHT22;2720;52.396;10.064;2022-09-25T05:52:44;11.90;99.90
5394;DHT22;2720;52.396;10.064;2022-09-25T05:55:11;11.90;99.90
5394;DHT22;2720;52.396;10.064;2022-09-25T05:57:38;11.90;99.90
5394;DHT22;2720;52.396;10.064;2022-09-25T06:00:06;11.90;99.90
5394;DHT22;2720;52.396;10.064;2022-09-25T06:02:34;11.90;99.90
5394;DHT22;2720;52.396;10.064;2022-09-25T06:05:01;11.90;99.90
5394;DHT22;2720;52.396;10.064;2022-09-25T06:07:28;11.90;99.90
5394;DHT22;2720;52.396;10.064;2022-09-25T06:09:57;11.90;99.90
5394;DHT22;2720;52.396;10.064;2022-09-25T06:12:24;12.00;99.90
5394;DHT22;2720;52.396;10.064;2022-09-25T06:14:51;11.90;99.90
5394;DHT22;2720;52.396;10.064;2022-09-25T06:17:18;11.90;99.90
5394;DHT22;2720;52.396;10.064;2022-09-25T06:19:45;11.90;99.90
5394;DHT22;2720;52.396;10.064;2022-09-25T06:22:12;11.90;99.90
5394;DHT22;2720;52.396;10.064;2022-09-25T06:24:40;11.90;99.90
5394;DHT22;2720;52.396;10.064;2022-09-25T06:27:08;11.90;99.90
5394;DHT22;2720;52.396;10.064;2022-09-25T06:29:35;12.00;99.90
5394;DHT22;2720;52.396;10.064;2022-09-25T06:32:02;11.90;99.90
5394;DHT22;2720;52.396;10.064;2022-09-25T06:34:29;11.90;99.90
5394;DHT22;2720;52.396;10.064;2022-09-25T06:36:58;12.00;99.90
5394;DHT22;2720;52.396;10.064;2022-09-25T06:39:25;12.00;99.90
5394;DHT22;2720;52.396;10.064;2022-09-25T06:41:52;12.00;99.90
5394;DHT22;2720;52.396;10.064;2022-09-25T06:44:21;11.90;99.90
5394;DHT22;2720;52.396;10.064;2022-09-25T06:46:49;11.90;99.90
5394;DHT22;2720;52.396;10.064;2022-09-25T06:49:19;11.90;99.90
5394;DHT22;2720;52.396;10.064;2022-09-25T06:51:46;11.90;99.90
5394;DHT22;2720;52.396;10.064;2022-09-25T06:54:13;12.00;99.90
5394;DHT22;2720;52.396;10.064;2022-09-25T06:56:40;12.00;99.90
5394;DHT22;2720;52.396;10.064;2022-09-25T06:59:07;12.00;99.90
5394;DHT22;2720;52.396;10.064;2022-09-25T07:01:36;12.00;99.90
5394;DHT22;2720;52.396;10.064;2022-09-25T07:04:03;12.00;99.90
5394;DHT22;2720;52.396;10.064;2022-09-25T07:06:29;12.00;99.90
5394;DHT22;2720;52.396;10.064;2022-09-25T07:08:58;12.10;99.90
5394;DHT22;2720;52.396;10.064;2022-09-25T07:11:27;12.10;99.90
5394;DHT22;2720;52.396;10.064;2022-09-25T07:13:54;12.10;99.90
5394;DHT22;2720;52.396;10.064;2022-09-25T07:16:22;12.10;99.90
5394;DHT22;2720;52.396;10.064;2022-09-25T07:18:52;12.10;99.90
5394;DHT22;2720;52.396;10.064;2022-09-25T07:21:20;12.10;99.90
5394;DHT22;2720;52.396;10.064;2022-09-25T07:23:50;12.10;99.90
5394;DHT22;2720;52.396;10.064;2022-09-25T07:26:20;12.10;99.90
5394;DHT22;2720;52.396;10.064;2022-09-25T07:28:52;12.10;99.90
5394;DHT22;2720;52.396;10.064;2022-09-25T07:31:21;12.10;99.90
5394;DHT22;2720;52.396;10.064;2022-09-25T07:33:50;12.10;99.90
5394;DHT22;2720;52.396;10.064;2022-09-25T07:36:17;12.20;99.90
5394;DHT22;2720;52.396;10.064;2022-09-25T07:38:48;12.10;99.90
5394;DHT22;2720;52.396;10.064;2022-09-25T07:41:15;12.10;99.90
5394;DHT22;2720;52.396;10.064;2022-09-25T07:43:43;12.10;99.90
5394;DHT22;2720;52.396;10.064;2022-09-25T07:46:10;12.20;99.90
5394;DHT22;2720;52.396;10.064;2022-09-25T07:48:37;12.20;99.90
5394;DHT22;2720;52.396;10.064;2022-09-25T07:51:07;12.20;99.90
5394;DHT22;2720;52.396;10.064;2022-09-25T07:53:36;12.20;99.90
5394;DHT22;2720;52.396;10.064;2022-09-25T07:56:03;12.20;99.90
5394;DHT22;2720;52.396;10.064;2022-09-25T07:58:30;12.20;99.90
5394;DHT22;2720;52.396;10.064;2022-09-25T08:00:59;12.10;99.90
5394;DHT22;2720;52.396;10.064;2022-09-25T08:03:26;12.20;99.90
5394;DHT22;2720;52.396;10.064;2022-09-25T08:05:57;12.20;99.90
5394;DHT22;2720;52.396;10.064;2022-09-25T08:08:26;12.20;99.90
5394;DHT22;2720;52.396;10.064;2022-09-25T08:10:58;12.30;99.90
5394;DHT22;2720;52.396;10.064;2022-09-25T08:13:25;12.30;99.90
5394;DHT22;2720;52.396;10.064;2022-09-25T08:15:53;12.30;99.90
5394;DHT22;2720;52.396;10.064;2022-09-25T08:18:21;12.30;99.90
5394;DHT22;2720;52.396;10.064;2022-09-25T08:20:48;12.30;99.90
5394;DHT22;2720;52.396;10.064;2022-09-25T08:23:15;12.30;99.90
5394;DHT22;2720;52.396;10.064;2022-09-25T08:25:46;12.40;99.90
5394;DHT22;2720;52.396;10.064;2022-09-25T08:28:13;12.40;99.90
5394;DHT22;2720;52.396;10.064;2022-09-25T08:30:40;12.50;99.90
5394;DHT22;2720;52.396;10.064;2022-09-25T08:33:09;12.50;99.90
5394;DHT22;2720;52.396;10.064;2022-09-25T08:35:37;12.40;99.90
5394;DHT22;2720;52.396;10.064;2022-09-25T08:38:05;12.40;99.90
5394;DHT22;2720;52.396;10.064;2022-09-25T08:40:33;12.50;99.90
5394;DHT22;2720;52.396;10.064;2022-09-25T08:43:04;12.50;99.90
5394;DHT22;2720;52.396;10.064;2022-09-25T08:45:34;12.50;99.90
5394;DHT22;2720;52.396;10.064;2022-09-25T08:48:24;12.50;99.90
5394;DHT22;2720;52.396;10.064;2022-09-25T08:51:10;12.50;99.90
5394;DHT22;2720;52.396;10.064;2022-09-25T08:53:38;12.50;99.90
5394;DHT22;2720;52.396;10.064;2022-09-25T08:56:07;12.50;99.90
5394;DHT22;2720;52.396;10.064;2022-09-25T08:58:47;12.50;99.90
5394;DHT22;2720;52.396;10.064;2022-09-25T09:01:20;12.50;99.90
5394;DHT22;2720;52.396;10.064;2022-09-25T09:03:52;12.60;99.90
5394;DHT22;2720;52.396;10.064;2022-09-25T09:06:23;12.50;99.90
5394;DHT22;2720;52.396;10.064;2022-09-25T09:08:54;12.50;99.90
5394;DHT22;2720;52.396;10.064;2022-09-25T09:11:30;12.50;99.90
5394;DHT22;2720;52.396;10.064;2022-09-25T09:14:03;12.40;99.90
5394;DHT22;2720;52.396;10.064;2022-09-25T09:16:37;12.40;99.90
5394;DHT22;2720;52.396;10.064;2022-09-25T09:19:06;12.40;99.90
5394;DHT22;2720;52.396;10.064;2022-09-25T09:21:36;12.50;99.90
5394;DHT22;2720;52.396;10.064;2022-09-25T09:24:14;12.50;99.90
5394;DHT22;2720;52.396;10.064;2022-09-25T09:26:54;12.50;99.90
5394;DHT22;2720;52.396;10.064;2022-09-25T09:29:40;12.50;99.90
5394;DHT22;2720;52.396;10.064;2022-09-25T09:32:21;12.60;99.90
5394;DHT22;2720;52.396;10.064;2022-09-25T09:35:11;12.70;99.90
5394;DHT22;2720;52.396;10.064;2022-09-25T09:37:55;12.70;99.90
5394;DHT22;2720;52.396;10.064;2022-09-25T09:40:37;12.70;99.90
5394;DHT22;2720;52.396;10.064;2022-09-25T09:43:16;12.80;99.90
5394;DHT22;2720;52.396;10.064;2022-09-25T09:45:51;12.80;99.90
5394;DHT22;2720;52.396;10.064;2022-09-25T09:48:23;12.80;99.90
5394;DHT22;2720;52.396;10.064;2022-09-25T09:50:56;12.90;99.90
5394;DHT22;2720;52.396;10.064;2022-09-25T09:53:28;12.90;99.90
5394;DHT22;2720;52.396;10.064;2022-09-25T09:56:02;12.90;99.90
5394;DHT22;2720;52.396;10.064;2022-09-25T09:58:33;12.90;99.90
5394;DHT22;2720;52.396;10.064;2022-09-25T10:01:03;12.80;99.90
5394;DHT22;2720;52.396;10.064;2022-09-25T10:03:35;12.80;99.90
5394;DHT22;2720;52.396;10.064;2022-09-25T10:06:07;12.90;99.90
5394;DHT22;2720;52.396;10.064;2022-09-25T10:08:35;12.90;99.90
5394;DHT22;2720;52.396;10.064;2022-09-25T10:11:08;13.00;99.90
5394;DHT22;2720;52.396;10.064;2022-09-25T10:13:37;13.10;99.90
5394;DHT22;2720;52.396;10.064;2022-09-25T10:16:10;13.20;99.90
5394;DHT22;2720;52.396;10.064;2022-09-25T10:18:42;13.20;99.90
5394;DHT22;2720;52.396;10.064;2022-09-25T10:21:13;13.10;99.90
5394;DHT22;2720;52.396;10.064;2022-09-25T10:23:47;13.00;99.90
5394;DHT22;2720;52.396;10.064;2022-09-25T10:26:28;13.10;99.90
5394;DHT22;2720;52.396;10.064;2022-09-25T10:28:56;13.10;99.90
5394;DHT22;2720;52.396;10.064;2022-09-25T10:31:28;13.10;99.90
5394;DHT22;2720;52.396;10.064;2022-09-25T10:34:02;13.10;99.90
5394;DHT22;2720;52.396;10.064;2022-09-25T10:36:38;13.00;99.90
5394;DHT22;2720;52.396;10.064;2022-09-25T10:39:26;13.00;99.90
5394;DHT22;2720;52.396;10.064;2022-09-25T10:41:54;13.10;99.90
5394;DHT22;2720;52.396;10.064;2022-09-25T10:44:28;13.10;99.90
5394;DHT22;2720;52.396;10.064;2022-09-25T10:47:29;13.20;99.90
5394;DHT22;2720;52.396;10.064;2022-09-25T10:50:17;13.30;99.90
5394;DHT22;2720;52.396;10.064;2022-09-25T10:52:47;13.30;99.90
5394;DHT22;2720;52.396;10.064;2022-09-25T10:55:22;13.40;99.90
5394;DHT22;2720;52.396;10.064;2022-09-25T10:58:01;13.50;99.90
5394;DHT22;2720;52.396;10.064;2022-09-25T11:00:31;13.60;99.90
5394;DHT22;2720;52.396;10.064;2022-09-25T11:03:04;13.70;99.90
5394;DHT22;2720;52.396;10.064;2022-09-25T11:05:35;13.80;99.90
5394;DHT22;2720;52.396;10.064;2022-09-25T11:08:05;13.90;99.90
5394;DHT22;2720;52.396;10.064;2022-09-25T11:10:35;14.00;99.90
5394;DHT22;2720;52.396;10.064;2022-09-25T11:13:07;14.00;99.90
5394;DHT22;2720;52.396;10.064;2022-09-25T11:15:35;14.10;99.90
5394;DHT22;2720;52.396;10.064;2022-09-25T11:18:07;14.20;99.90
5394;DHT22;2720;52.396;10.064;2022-09-25T11:21:00;14.10;99.90
5394;DHT22;2720;52.396;10.064;2022-09-25T11:23:32;14.00;99.90
5394;DHT22;2720;52.396;10.064;2022-09-25T11:26:05;13.80;99.90
5394;DHT22;2720;52.396;10.064;2022-09-25T11:28:37;13.80;99.90
5394;DHT22;2720;52.396;10.064;2022-09-25T11:31:19;13.70;99.90
5394;DHT22;2720;52.396;10.064;2022-09-25T11:33:54;13.70;99.90
5394;DHT22;2720;52.396;10.064;2022-09-25T11:36:26;13.80;99.90
5394;DHT22;2720;52.396;10.064;2022-09-25T11:38:57;13.90;99.90
5394;DHT22;2720;52.396;10.064;2022-09-25T11:41:47;13.90;99.90
5394;DHT22;2720;52.396;10.064;2022-09-25T11:44:23;13.90;99.90
5394;DHT22;2720;52.396;10.064;2022-09-25T11:46:58;14.10;99.90
5394;DHT22;2720;52.396;10.064;2022-09-25T11:49:29;14.30;99.90
5394;DHT22;2720;52.396;10.064;2022-09-25T11:52:29;14.30;99.90
5394;DHT22;2720;52.396;10.064;2022-09-25T11:58:44;14.00;99.90
5394;DHT22;2720;52.396;10.064;2022-09-25T12:01:34;14.10;99.90
5394;DHT22;2720;52.396;10.064;2022-09-25T12:07:20;14.10;99.90
5394;DHT22;2720;52.396;10.064;2022-09-25T12:10:11;14.30;99.90
5394;DHT22;2720;52.396;10.064;2022-09-25T12:12:47;14.50;99.90
5394;DHT22;2720;52.396;10.064;2022-09-25T12:15:20;14.70;99.90
5394;DHT22;2720;52.396;10.064;2022-09-25T12:17:56;15.10;99.90
5394;DHT22;2720;52.396;10.064;2022-09-25T12:20:31;15.50;99.90
5394;DHT22;2720;52.396;10.064;2022-09-25T12:23:13;16.00;99.90
5394;DHT22;2720;52.396;10.064;2022-09-25T12:25:59;16.20;99.90
5394;DHT22;2720;52.396;10.064;2022-09-25T12:28:33;16.30;99.90
5394;DHT22;2720;52.396;10.064;2022-09-25T12:31:07;16.20;99.90
5394;DHT22;2720;52.396;10.064;2022-09-25T12:33:40;16.40;99.90
5394;DHT22;2720;52.396;10.064;2022-09-25T12:36:13;16.50;99.90
5394;DHT22;2720;52.396;10.064;2022-09-25T12:38:46;16.80;99.90
5394;DHT22;2720;52.396;10.064;2022-09-25T12:41:26;17.10;99.90
5394;DHT22;2720;52.396;10.064;2022-09-25T12:44:00;17.20;99.90
5394;DHT22;2720;52.396;10.064;2022-09-25T12:46:36;17.20;99.90
5394;DHT22;2720;52.396;10.064;2022-09-25T12:49:11;17.10;99.90
5394;DHT22;2720;52.396;10.064;2022-09-25T12:51:42;17.00;99.90
5394;DHT22;2720;52.396;10.064;2022-09-25T12:54:21;16.60;99.90
5394;DHT22;2720;52.396;10.064;2022-09-25T12:56:54;16.30;99.90
5394;DHT22;2720;52.396;10.064;2022-09-25T12:59:26;16.20;99.90
5394;DHT22;2720;52.396;10.064;2022-09-25T13:01:59;16.10;99.90
5394;DHT22;2720;52.396;10.064;2022-09-25T13:04:53;16.10;99.90
5394;DHT22;2720;52.396;10.064;2022-09-25T13:07:26;16.10;99.90
5394;DHT22;2720;52.396;10.064;2022-09-25T13:09:55;16.60;99.90
5394;DHT22;2720;52.396;10.064;2022-09-25T13:12:32;17.20;99.90
5394;DHT22;2720;52.396;10.064;2022-09-25T13:15:03;18.10;99.90
5394;DHT22;2720;52.396;10.064;2022-09-25T13:17:34;18.60;99.90
5394;DHT22;2720;52.396;10.064;2022-09-25T13:23:10;19.80;99.90
5394;DHT22;2720;52.396;10.064;2022-09-25T13:25:42;19.70;99.90
5394;DHT22;2720;52.396;10.064;2022-09-25T13:28:19;19.60;99.90
5394;DHT22;2720;52.396;10.064;2022-09-25T13:30:59;19.40;99.90
5394;DHT22;2720;52.396;10.064;2022-09-25T13:33:27;19.60;99.90
5394;DHT22;2720;52.396;10.064;2022-09-25T13:36:09;19.60;99.90
5394;DHT22;2720;52.396;10.064;2022-09-25T13:38:43;19.60;99.90
5394;DHT22;2720;52.396;10.064;2022-09-25T13:41:30;19.70;99.90
5394;DHT22;2720;52.396;10.064;2022-09-25T13:53:18;17.50;99.90
5394;DHT22;2720;52.396;10.064;2022-09-25T13:56:14;16.70;99.90
5394;DHT22;2720;52.396;10.064;2022-09-25T14:01:57;15.60;99.90
5394;DHT22;2720;52.396;10.064;2022-09-25T14:04:42;15.50;99.90
5394;DHT22;2720;52.396;10.064;2022-09-25T14:07:18;15.40;99.90
5394;DHT22;2720;52.396;10.064;2022-09-25T14:09:48;15.30;99.90
5394;DHT22;2720;52.396;10.064;2022-09-25T14:12:28;15.30;99.90
5394;DHT22;2720;52.396;10.064;2022-09-25T14:15:00;15.30;99.90
5394;DHT22;2720;52.396;10.064;2022-09-25T14:17:32;15.30;99.90
5394;DHT22;2720;52.396;10.064;2022-09-25T14:20:05;15.50;99.90
5394;DHT22;2720;52.396;10.064;2022-09-25T14:22:38;15.60;99.90
5394;DHT22;2720;52.396;10.064;2022-09-25T14:25:26;15.70;99.90
5394;DHT22;2720;52.396;10.064;2022-09-25T14:27:57;15.90;99.90
5394;DHT22;2720;52.396;10.064;2022-09-25T14:30:25;16.10;99.90
5394;DHT22;2720;52.396;10.064;2022-09-25T14:33:24;16.30;99.90
5394;DHT22;2720;52.396;10.064;2022-09-25T14:35:59;16.80;99.90
5394;DHT22;2720;52.396;10.064;2022-09-25T14:38:50;17.20;99.90
5394;DHT22;2720;52.396;10.064;2022-09-25T14:41:50;17.30;99.90
5394;DHT22;2720;52.396;10.064;2022-09-25T14:44:38;16.90;99.90
5394;DHT22;2720;52.396;10.064;2022-09-25T14:47:10;16.40;99.90
5394;DHT22;2720;52.396;10.064;2022-09-25T14:49:41;16.10;99.90
5394;DHT22;2720;52.396;10.064;2022-09-25T14:52:13;15.80;99.90
5394;DHT22;2720;52.396;10.064;2022-09-25T14:54:43;15.60;99.90
5394;DHT22;2720;52.396;10.064;2022-09-25T14:57:14;15.50;99.90
5394;DHT22;2720;52.396;10.064;2022-09-25T14:59:45;15.40;99.90
5394;DHT22;2720;52.396;10.064;2022-09-25T15:02:17;15.40;99.90
5394;DHT22;2720;52.396;10.064;2022-09-25T15:04:48;15.40;99.90
5394;DHT22;2720;52.396;10.064;2022-09-25T15:07:17;15.50;99.90
5394;DHT22;2720;52.396;10.064;2022-09-25T15:09:46;15.60;99.90
5394;DHT22;2720;52.396;10.064;2022-09-25T15:12:27;15.70;99.90
5394;DHT22;2720;52.396;10.064;2022-09-25T15:15:00;15.80;99.90
5394;DHT22;2720;52.396;10.064;2022-09-25T15:17:28;15.80;99.90
5394;DHT22;2720;52.396;10.064;2022-09-25T15:19:59;15.90;99.90
5394;DHT22;2720;52.396;10.064;2022-09-25T15:22:30;15.80;99.90
5394;DHT22;2720;52.396;10.064;2022-09-25T15:25:01;15.80;99.90
5394;DHT22;2720;52.396;10.064;2022-09-25T15:27:29;15.70;99.90
5394;DHT22;2720;52.396;10.064;2022-09-25T15:29:57;15.50;99.90
5394;DHT22;2720;52.396;10.064;2022-09-25T15:32:28;15.40;99.90
5394;DHT22;2720;52.396;10.064;2022-09-25T15:35:16;15.20;99.90
5394;DHT22;2720;52.396;10.064;2022-09-25T15:37:44;15.00;99.90
5394;DHT22;2720;52.396;10.064;2022-09-25T15:40:20;15.00;99.90
5394;DHT22;2720;52.396;10.064;2022-09-25T15:42:50;15.00;99.90
5394;DHT22;2720;52.396;10.064;2022-09-25T15:45:38;15.00;99.90
5394;DHT22;2720;52.396;10.064;2022-09-25T15:48:28;14.90;99.90
5394;DHT22;2720;52.396;10.064;2022-09-25T15:51:00;14.90;99.90
5394;DHT22;2720;52.396;10.064;2022-09-25T15:53:30;14.90;99.90
5394;DHT22;2720;52.396;10.064;2022-09-25T15:56:06;14.80;99.90
5394;DHT22;2720;52.396;10.064;2022-09-25T15:58:44;14.80;99.90
5394;DHT22;2720;52.396;10.064;2022-09-25T16:01:14;14.70;99.90
5394;DHT22;2720;52.396;10.064;2022-09-25T16:04:00;14.80;99.90
5394;DHT22;2720;52.396;10.064;2022-09-25T16:06:46;14.80;99.90
5394;DHT22;2720;52.396;10.064;2022-09-25T16:09:29;14.80;99.90
5394;DHT22;2720;52.396;10.064;2022-09-25T16:12:19;14.90;99.90
5394;DHT22;2720;52.396;10.064;2022-09-25T16:14:47;14.90;99.90
5394;DHT22;2720;52.396;10.064;2022-09-25T16:17:19;14.80;99.90
5394;DHT22;2720;52.396;10.064;2022-09-25T16:19:57;14.80;99.90
5394;DHT22;2720;52.396;10.064;2022-09-25T16:22:26;14.70;99.90
5394;DHT22;2720;52.396;10.064;2022-09-25T16:24:54;14.70;99.90
5394;DHT22;2720;52.396;10.064;2022-09-25T16:27:27;14.70;99.90
5394;DHT22;2720;52.396;10.064;2022-09-25T16:29:57;14.60;99.90
5394;DHT22;2720;52.396;10.064;2022-09-25T16:32:24;14.60;99.90
5394;DHT22;2720;52.396;10.064;2022-09-25T16:34:56;14.50;99.90
5394;DHT22;2720;52.396;10.064;2022-09-25T16:37:28;14.40;99.90
5394;DHT22;2720;52.396;10.064;2022-09-25T16:40:26;14.30;99.90
5394;DHT22;2720;52.396;10.064;2022-09-25T16:42:59;14.30;99.90